createdAt,value
2022-10-17T00:00:25.817Z,4.80
2022-10-17T00:03:34.941Z,4.23
2022-10-17T00:06:41.472Z,3.53
2022-10-17T00:09:47.415Z,4.60
2022-10-17T00:12:53.988Z,4.23
2022-10-17T00:16:00.660Z,30.97
2022-10-17T00:19:08.599Z,14.03
2022-10-17T00:22:14.678Z,10.80
2022-10-17T00:25:21.008Z,6.83
2022-10-17T00:28:27.165Z,7.03
2022-10-17T00:31:33.165Z,5.97
2022-10-17T00:34:40.836Z,3.97
2022-10-17T00:37:46.808Z,4.17
2022-10-17T00:40:53.019Z,3.77
2022-10-17T00:44:02.199Z,4.27
2022-10-17T00:47:13.990Z,3.77
2022-10-17T00:50:21.879Z,3.80
2022-10-17T00:53:28.017Z,4.50
2022-10-17T00:56:34.982Z,4.47
2022-10-17T00:59:44.307Z,3.40
2022-10-17T01:02:50.299Z,3.33
2022-10-17T01:05:58.434Z,46.17
2022-10-17T01:09:05.291Z,18.97
2022-10-17T01:12:19.613Z,10.17
2022-10-17T01:15:39.145Z,7.50
2022-10-17T01:18:57.866Z,6.43
2022-10-17T01:22:15.478Z,5.13
2022-10-17T01:25:30.655Z,4.50
2022-10-17T01:29:05.825Z,4.13
2022-10-17T01:32:17.751Z,4.20
2022-10-17T01:35:29.404Z,4.43
2022-10-17T01:38:39.412Z,4.77
2022-10-17T01:41:51.216Z,3.93
2022-10-17T01:45:01.324Z,3.50
2022-10-17T01:48:15.837Z,3.70
2022-10-17T01:51:27.979Z,3.90
2022-10-17T01:54:40.690Z,3.70
2022-10-17T01:57:50.804Z,4.00
2022-10-17T02:00:59.738Z,3.33
2022-10-17T02:04:11.238Z,3.83
2022-10-17T02:07:17.765Z,4.70
2022-10-17T02:10:34.567Z,6.70
2022-10-17T02:13:57.903Z,3.70
2022-10-17T02:17:13.933Z,4.33
2022-10-17T02:20:26.215Z,5.27
2022-10-17T02:23:39.938Z,5.70
2022-10-17T02:26:53.529Z,3.77
2022-10-17T02:30:07.631Z,3.00
2022-10-17T02:33:17.984Z,3.97
2022-10-17T02:36:31.168Z,3.80
2022-10-17T02:39:39.449Z,3.17
2022-10-17T02:42:47.331Z,3.37
2022-10-17T02:45:54.189Z,10.77
2022-10-17T02:49:04.255Z,9.97
2022-10-17T02:52:15.986Z,5.87
2022-10-17T02:55:27.883Z,3.63
2022-10-17T02:58:36.399Z,4.03
2022-10-17T03:01:43.686Z,4.67
2022-10-17T03:04:50.266Z,4.80
2022-10-17T03:07:58.404Z,7.00
2022-10-17T03:11:04.678Z,4.97
2022-10-17T03:14:11.072Z,13.40
2022-10-17T03:17:17.455Z,9.17
2022-10-17T03:20:23.754Z,6.33
2022-10-17T03:23:31.464Z,14.30
2022-10-17T03:26:37.842Z,11.77
2022-10-17T03:29:43.902Z,18.10
2022-10-17T03:32:50.090Z,16.57
2022-10-17T03:35:56.200Z,8.97
2022-10-17T03:39:03.798Z,7.80
2022-10-17T03:42:09.760Z,9.40
2022-10-17T03:45:16.147Z,10.70
2022-10-17T03:48:22.004Z,11.43
2022-10-17T03:51:28.450Z,7.97
2022-10-17T03:54:35.948Z,6.27
2022-10-17T03:57:43.463Z,11.53
2022-10-17T04:00:51.400Z,6.93
2022-10-17T04:03:58.354Z,5.50
2022-10-17T04:07:04.830Z,5.17
2022-10-17T04:10:13.239Z,6.83
2022-10-17T04:13:19.329Z,6.13
2022-10-17T04:16:25.723Z,5.77
2022-10-17T04:19:32.216Z,5.20
2022-10-17T04:22:38.687Z,4.43
2022-10-17T04:25:46.474Z,5.07
2022-10-17T04:28:52.738Z,8.73
2022-10-17T04:31:58.827Z,11.17
2022-10-17T04:35:05.539Z,7.67
2022-10-17T04:38:11.597Z,5.20
2022-10-17T04:41:20.125Z,5.03
2022-10-17T04:44:26.119Z,13.03
2022-10-17T04:47:32.317Z,15.77
2022-10-17T04:50:38.578Z,13.93
2022-10-17T04:53:45.314Z,14.20
2022-10-17T04:56:52.895Z,14.50
2022-10-17T04:59:58.888Z,13.17
2022-10-17T05:03:05.021Z,10.30
2022-10-17T05:06:14.318Z,12.97
2022-10-17T05:09:20.289Z,21.63
2022-10-17T05:12:28.319Z,11.27
2022-10-17T05:15:34.887Z,8.27
2022-10-17T05:18:41.011Z,8.80
2022-10-17T05:21:47.345Z,6.47
2022-10-17T05:24:53.653Z,7.17
2022-10-17T05:28:01.201Z,9.30
2022-10-17T05:31:08.179Z,9.93
2022-10-17T05:34:14.675Z,9.33
2022-10-17T05:37:20.826Z,9.07
2022-10-17T05:40:27.037Z,9.40
2022-10-17T05:43:35.270Z,8.73
2022-10-17T05:46:41.486Z,9.63
2022-10-17T05:49:51.384Z,11.93
2022-10-17T05:52:59.031Z,12.27
2022-10-17T05:56:10.247Z,9.63
2022-10-17T05:59:18.069Z,7.17
2022-10-17T06:02:24.293Z,7.63
2022-10-17T06:05:30.427Z,15.73
2022-10-17T06:08:36.479Z,19.23
2022-10-17T06:11:42.789Z,21.73
2022-10-17T06:14:50.603Z,28.23
2022-10-17T06:17:56.696Z,25.37
2022-10-17T06:21:07.646Z,26.60
2022-10-17T06:24:14.453Z,28.43
2022-10-17T06:27:20.931Z,21.43
2022-10-17T06:30:28.487Z,16.23
2022-10-17T06:33:34.760Z,10.80
2022-10-17T06:36:41.048Z,13.93
2022-10-17T06:39:47.405Z,10.07
2022-10-17T06:42:53.751Z,8.20
2022-10-17T06:46:00.966Z,14.43
2022-10-17T06:49:07.611Z,9.40
2022-10-17T06:52:14.855Z,6.93
2022-10-17T06:55:23.066Z,6.87
2022-10-17T06:58:29.969Z,6.57
2022-10-17T07:01:38.926Z,10.00
2022-10-17T07:04:47.664Z,10.00
2022-10-17T07:07:53.571Z,7.07
2022-10-17T07:10:59.737Z,6.77
2022-10-17T07:14:05.820Z,5.27
2022-10-17T07:17:13.521Z,6.33
2022-10-17T07:20:19.838Z,5.77
2022-10-17T07:23:26.223Z,7.77
2022-10-17T07:26:32.498Z,7.87
2022-10-17T07:29:39.097Z,7.07
2022-10-17T07:32:46.788Z,8.33
2022-10-17T07:35:53.369Z,6.20
2022-10-17T07:38:59.467Z,6.57
2022-10-17T07:42:07.751Z,5.33
2022-10-17T07:45:14.361Z,6.17
2022-10-17T07:48:23.796Z,6.50
2022-10-17T07:51:30.162Z,6.57
2022-10-17T07:54:36.468Z,6.33
2022-10-17T07:57:42.655Z,7.67
2022-10-17T08:00:51.147Z,7.10
2022-10-17T08:03:59.079Z,6.10
2022-10-17T08:07:19.117Z,6.07
2022-10-17T08:10:29.427Z,5.67
2022-10-17T08:13:36.220Z,7.40
2022-10-17T08:16:42.330Z,6.73
2022-10-17T08:19:49.900Z,6.23
2022-10-17T08:22:56.275Z,5.13
2022-10-17T08:26:03.431Z,5.60
2022-10-17T08:29:14.394Z,4.90
2022-10-17T08:32:20.585Z,4.00
2022-10-17T08:35:28.682Z,10.70
2022-10-17T08:38:36.930Z,8.47
2022-10-17T08:41:59.356Z,6.37
2022-10-17T08:45:17.854Z,13.97
2022-10-17T08:48:27.123Z,12.00
2022-10-17T08:51:38.445Z,8.03
2022-10-17T08:54:47.322Z,4.73
2022-10-17T08:57:53.448Z,5.67
2022-10-17T09:01:11.974Z,4.13
2022-10-17T09:04:45.697Z,5.53
2022-10-17T09:08:00.632Z,6.17
2022-10-17T09:11:17.351Z,8.67
2022-10-17T09:14:51.335Z,7.47
2022-10-17T09:18:02.243Z,8.37
2022-10-17T09:21:19.474Z,5.53
2022-10-17T09:24:39.712Z,4.77
2022-10-17T09:27:49.921Z,3.83
2022-10-17T09:31:00.862Z,7.33
2022-10-17T09:34:07.942Z,3.60
2022-10-17T09:37:16.599Z,3.27
2022-10-17T09:40:32.860Z,2.40
2022-10-17T09:43:40.572Z,3.10
2022-10-17T09:47:05.586Z,2.80
2022-10-17T09:50:22.011Z,4.97
2022-10-17T09:53:35.919Z,4.10
2022-10-17T09:57:02.556Z,2.70
2022-10-17T10:00:21.096Z,2.70
2022-10-17T10:03:28.191Z,2.50
2022-10-17T10:06:34.552Z,1.87
2022-10-17T10:09:41.227Z,1.87
2022-10-17T10:13:04.670Z,2.10
2022-10-17T10:16:21.622Z,1.93
2022-10-17T10:19:31.579Z,1.93
2022-10-17T10:22:37.788Z,1.80
2022-10-17T10:25:56.750Z,1.70
2022-10-17T10:29:24.202Z,1.67
2022-10-17T10:35:59.099Z,2.30
2022-10-17T10:39:06.300Z,3.93
2022-10-17T10:42:23.219Z,3.83
2022-10-17T10:45:47.916Z,2.80
2022-10-17T10:49:00.320Z,2.13
2022-10-17T10:52:09.252Z,2.03
2022-10-17T10:55:25.389Z,2.43
2022-10-17T10:58:43.011Z,1.90
2022-10-17T11:01:57.988Z,4.50
2022-10-17T11:05:08.324Z,31.00
2022-10-17T11:08:24.748Z,12.83
2022-10-17T11:11:39.185Z,4.20
2022-10-17T11:14:50.397Z,2.40
2022-10-17T11:18:01.467Z,1.90
2022-10-17T11:21:16.226Z,2.70
2022-10-17T11:24:26.346Z,2.60
2022-10-17T11:27:33.006Z,2.60
2022-10-17T11:30:48.077Z,1.70
2022-10-17T11:33:59.132Z,2.17
2022-10-17T11:37:09.342Z,2.20
2022-10-17T11:40:23.451Z,2.40
2022-10-17T11:43:33.915Z,1.97
2022-10-17T11:46:43.845Z,1.57
2022-10-17T11:49:56.554Z,1.80
2022-10-17T11:53:06.396Z,1.60
2022-10-17T11:56:14.079Z,3.73
2022-10-17T11:59:47.216Z,2.70
2022-10-17T12:03:05.530Z,2.23
2022-10-17T12:06:19.516Z,2.07
2022-10-17T12:09:37.217Z,1.63
2022-10-17T12:12:43.527Z,1.40
2022-10-17T12:15:49.461Z,1.90
2022-10-17T12:19:28.655Z,1.90
2022-10-17T12:22:36.346Z,2.10
2022-10-17T12:25:51.785Z,1.70
2022-10-17T12:28:58.644Z,1.73
2022-10-17T12:32:12.792Z,2.20
2022-10-17T12:35:23.349Z,1.60
2022-10-17T12:38:31.236Z,1.80
2022-10-17T12:41:55.349Z,1.80
2022-10-17T12:45:01.664Z,2.90
2022-10-17T12:48:10.866Z,2.07
2022-10-17T12:55:00.125Z,1.70
2022-10-17T12:58:17.999Z,1.80
2022-10-17T13:01:30.064Z,1.73
2022-10-17T13:04:38.348Z,2.20
2022-10-17T13:07:47.120Z,1.97
2022-10-17T13:10:56.159Z,2.03
2022-10-17T13:14:05.364Z,1.97
2022-10-17T13:17:23.673Z,2.40
2022-10-17T13:20:31.982Z,1.90
2022-10-17T13:23:39.342Z,2.00
2022-10-17T13:26:47.820Z,1.77
2022-10-17T13:29:56.279Z,2.83
2022-10-17T13:33:03.299Z,2.80
2022-10-17T13:36:15.915Z,2.20
2022-10-17T13:39:38.507Z,2.57
2022-10-17T13:42:53.676Z,2.83
2022-10-17T13:46:25.287Z,2.20
2022-10-17T13:49:34.699Z,2.03
2022-10-17T13:52:41.172Z,3.20
2022-10-17T13:56:26.320Z,2.53
2022-10-17T13:59:32.211Z,1.93
2022-10-17T14:02:38.574Z,1.73
2022-10-17T14:06:10.824Z,1.70
2022-10-17T14:09:22.579Z,1.90
2022-10-17T14:12:28.970Z,2.30
2022-10-17T14:15:38.488Z,1.50
2022-10-17T14:18:49.410Z,1.80
2022-10-17T14:21:57.176Z,2.37
2022-10-17T14:25:04.437Z,2.10
2022-10-17T14:28:15.962Z,3.45
2022-10-17T14:31:31.808Z,3.13
2022-10-17T14:34:41.740Z,2.22
2022-10-17T14:37:50.754Z,2.20
2022-10-17T14:41:23.620Z,2.15
2022-10-17T14:44:31.671Z,2.00
2022-10-17T14:47:43.569Z,2.10
2022-10-17T14:51:08.842Z,2.53
2022-10-17T14:54:22.677Z,2.93
2022-10-17T14:57:42.016Z,2.20
2022-10-17T15:00:48.253Z,2.43
2022-10-17T15:03:55.776Z,3.10
2022-10-17T15:07:01.733Z,3.17
2022-10-17T15:10:08.488Z,13.10
2022-10-17T15:13:27.802Z,11.63
2022-10-17T15:16:37.209Z,10.27
2022-10-17T15:19:44.642Z,19.83
2022-10-17T15:22:50.727Z,26.63
2022-10-17T15:25:56.994Z,28.10
2022-10-17T15:29:03.689Z,24.37
2022-10-17T15:32:09.738Z,22.23
2022-10-17T15:35:18.602Z,29.43
2022-10-17T15:38:24.642Z,24.97
2022-10-17T15:41:32.771Z,54.53
2022-10-17T15:44:40.511Z,55.03
2022-10-17T15:47:52.237Z,68.30
2022-10-17T15:50:59.535Z,86.97
2022-10-17T15:54:06.371Z,67.83
2022-10-17T15:57:18.343Z,59.60
2022-10-17T16:00:25.988Z,61.03
2022-10-17T16:03:32.255Z,69.53
2022-10-17T16:06:39.672Z,73.07
2022-10-17T16:09:46.194Z,63.23
2022-10-17T16:12:52.311Z,56.53
2022-10-17T16:15:58.631Z,42.83
2022-10-17T16:19:05.184Z,25.03
2022-10-17T16:22:21.375Z,22.33
2022-10-17T16:25:29.776Z,22.67
2022-10-17T16:28:36.086Z,24.63
2022-10-17T16:31:44.564Z,32.33
2022-10-17T16:34:50.918Z,25.20
2022-10-17T16:37:58.504Z,32.23
2022-10-17T16:41:04.604Z,37.00
2022-10-17T16:44:14.680Z,26.20
2022-10-17T16:47:21.083Z,28.30
2022-10-17T16:50:27.312Z,50.60
2022-10-17T16:53:34.959Z,52.50
2022-10-17T16:56:42.219Z,47.63
2022-10-17T16:59:48.344Z,47.67
2022-10-17T17:02:54.420Z,66.27
2022-10-17T17:06:00.457Z,58.73
2022-10-17T17:09:09.358Z,51.17
2022-10-17T17:12:15.318Z,48.60
2022-10-17T17:15:21.298Z,44.27
2022-10-17T17:18:27.561Z,46.93
2022-10-17T17:21:33.918Z,58.70
2022-10-17T17:24:41.586Z,43.50
2022-10-17T17:27:47.785Z,38.77
2022-10-17T17:30:54.150Z,48.23
2022-10-17T17:34:00.738Z,50.07
2022-10-17T17:37:06.951Z,65.93
2022-10-17T17:40:14.723Z,76.60
2022-10-17T17:43:21.428Z,87.47
2022-10-17T17:46:27.712Z,74.33
2022-10-17T17:49:33.912Z,65.77
2022-10-17T17:52:42.277Z,50.83
2022-10-17T17:55:50.198Z,37.27
2022-10-17T17:58:58.095Z,35.30
2022-10-17T18:02:06.441Z,52.67
2022-10-17T18:05:12.693Z,41.17
2022-10-17T18:08:19.129Z,38.03
2022-10-17T18:11:27.275Z,40.20
2022-10-17T18:14:33.376Z,26.20
2022-10-17T18:17:40.092Z,19.97
2022-10-17T18:20:46.306Z,15.53
2022-10-17T18:23:52.977Z,10.23
2022-10-17T18:27:00.812Z,22.83
2022-10-17T18:30:08.589Z,30.27
2022-10-17T18:33:14.713Z,15.27
2022-10-17T18:36:21.637Z,15.37
2022-10-17T18:39:27.812Z,14.10
2022-10-17T18:42:35.532Z,20.03
2022-10-17T18:45:41.467Z,20.33
2022-10-17T18:48:49.359Z,24.23
2022-10-17T18:51:55.819Z,14.87
2022-10-17T18:55:02.108Z,15.67
2022-10-17T18:58:09.881Z,15.40
2022-10-17T19:01:18.171Z,20.43
2022-10-17T19:04:24.564Z,16.03
2022-10-17T19:07:31.160Z,29.03
2022-10-17T19:10:37.757Z,29.53
2022-10-17T19:16:57.471Z,50.43
2022-10-17T19:20:03.559Z,46.83
2022-10-17T19:23:10.041Z,38.30
2022-10-17T19:26:16.434Z,23.27
2022-10-17T19:29:31.288Z,23.70
2022-10-17T19:32:38.504Z,37.77
2022-10-17T19:35:44.737Z,28.80
2022-10-17T19:38:54.563Z,31.57
2022-10-17T19:42:05.979Z,16.53
2022-10-17T19:45:14.831Z,14.93
2022-10-17T19:48:21.143Z,17.10
2022-10-17T19:51:28.707Z,25.50
2022-10-17T19:54:35.129Z,29.13
2022-10-17T19:57:41.461Z,31.97
2022-10-17T20:00:50.112Z,25.63
2022-10-17T20:03:57.379Z,21.60
2022-10-17T20:07:03.749Z,15.87
2022-10-17T20:10:10.908Z,12.57
2022-10-17T20:13:16.968Z,10.37
2022-10-17T20:16:26.783Z,14.27
2022-10-17T20:19:33.303Z,17.93
2022-10-17T20:22:39.731Z,13.57
2022-10-17T20:25:46.191Z,14.70
2022-10-17T20:28:52.568Z,19.40
2022-10-17T20:31:59.993Z,27.23
2022-10-17T20:35:08.263Z,12.83
2022-10-17T20:38:14.861Z,20.53
2022-10-17T20:41:21.525Z,14.13
2022-10-17T20:44:27.780Z,16.17
2022-10-17T20:47:46.006Z,9.67
2022-10-17T20:50:55.047Z,12.77
2022-10-17T20:54:01.301Z,15.13
2022-10-17T20:57:07.851Z,17.53
2022-10-17T21:00:15.253Z,17.33
2022-10-17T21:03:22.831Z,20.80
2022-10-17T21:06:29.055Z,19.87
2022-10-17T21:09:35.675Z,12.17
2022-10-17T21:12:53.108Z,6.87
2022-10-17T21:16:06.340Z,6.33
2022-10-17T21:19:15.034Z,7.87
2022-10-17T21:22:21.255Z,12.53
2022-10-17T21:25:27.654Z,14.23
2022-10-17T21:28:34.674Z,16.00
2022-10-17T21:31:43.387Z,13.57
2022-10-17T21:34:50.991Z,16.07
2022-10-17T21:37:57.349Z,8.97
2022-10-17T21:41:04.073Z,8.50
2022-10-17T21:44:14.723Z,7.87
2022-10-17T21:47:23.281Z,6.47
2022-10-17T21:50:32.953Z,6.30
2022-10-17T21:53:39.437Z,6.67
2022-10-17T21:56:45.903Z,5.53
2022-10-17T21:59:52.509Z,9.10
2022-10-17T22:02:58.638Z,7.63
2022-10-17T22:06:37.519Z,7.60
2022-10-17T22:09:34.113Z,9.40
2022-10-17T22:12:40.420Z,6.67
2022-10-17T22:15:46.968Z,10.17
2022-10-17T22:18:58.726Z,5.03
2022-10-17T22:22:09.070Z,5.87
2022-10-17T22:25:15.055Z,4.63
2022-10-17T22:28:21.636Z,9.27
2022-10-17T22:31:28.115Z,7.40
2022-10-17T22:34:34.237Z,7.23
2022-10-17T22:37:41.880Z,5.93
2022-10-17T22:40:48.490Z,5.00
2022-10-17T22:43:54.587Z,5.73
2022-10-17T22:47:01.119Z,4.47
2022-10-17T22:50:07.916Z,3.90
2022-10-17T22:53:17.019Z,4.30
2022-10-17T22:56:24.039Z,3.30
2022-10-17T22:59:30.044Z,4.87
2022-10-17T23:02:36.527Z,6.17
2022-10-17T23:05:42.985Z,8.43
2022-10-17T23:08:50.856Z,7.50
2022-10-17T23:11:56.962Z,7.23
2022-10-17T23:15:03.715Z,9.07
2022-10-17T23:18:10.900Z,7.57
2022-10-17T23:21:17.525Z,7.67
2022-10-17T23:24:24.845Z,7.23
2022-10-17T23:30:42.024Z,11.23
2022-10-17T23:33:49.817Z,9.00
2022-10-17T23:36:56.312Z,9.60
2022-10-17T23:40:03.718Z,7.60
2022-10-17T23:43:10.204Z,5.30
2022-10-17T23:46:16.277Z,4.57
2022-10-17T23:49:22.209Z,4.30
2022-10-17T23:52:28.447Z,5.57
2022-10-17T23:55:36.495Z,6.20
2022-10-17T23:58:42.947Z,6.37
